Time;durP1;ratioP1;P1;durP2;ratioP2;P2;SDS_P1;SDS_P2;PMS_P1;PMS_P2;Temp;Humidity;BMP_temperature;BMP_pressure;BME280_temperature;BME280_humidity;BME280_pressure;Samples;Min_cycle;Max_cycle;Signal;HPM_P1;HPM_P2
2022/10/16 00:02:06;;;;;;;4.85;2.53;;;;;;;12.21;100.00;101008.72;5113267;28;20035;-35
2022/10/16 00:04:31;;;;;;;4.83;2.63;;;;;;;12.22;100.00;101006.81;5113015;28;20135;-35
2022/10/16 00:06:57;;;;;;;5.73;2.33;;;;;;;12.14;100.00;100985.50;5113522;28;20035;-35
2022/10/16 00:09:22;;;;;;;5.13;2.57;;;;;;;12.19;100.00;100996.44;5112863;28;20490;-35
2022/10/16 00:11:48;;;;;;;4.45;2.30;;;;;;;12.10;100.00;100983.28;5113367;28;20095;-35
2022/10/16 00:14:14;;;;;;;8.10;2.80;;;;;;;12.17;100.00;100988.56;5113579;28;20028;-35
2022/10/16 00:16:41;;;;;;;6.13;2.70;;;;;;;12.19;100.00;100993.72;5117688;28;20030;-35
2022/10/16 00:19:06;;;;;;;5.18;2.40;;;;;;;12.10;100.00;100987.84;5117310;27;20032;-35
2022/10/16 00:21:32;;;;;;;5.25;2.50;;;;;;;12.18;100.00;101008.34;5117449;28;20034;-35
2022/10/16 00:24:04;;;;;;;4.25;2.45;;;;;;;12.13;100.00;101008.25;5117130;28;20111;-34
2022/10/16 00:26:32;;;;;;;5.60;2.83;;;;;;;12.07;100.00;100994.56;5117018;28;20482;-35
2022/10/16 00:28:57;;;;;;;4.53;2.40;;;;;;;12.07;100.00;100999.19;5117428;28;20032;-35
2022/10/16 00:31:24;;;;;;;5.18;2.70;;;;;;;11.99;100.00;100989.50;5116946;28;20478;-35
2022/10/16 00:33:49;;;;;;;;;;;;;;;12.09;100.00;101002.47;5117359;28;20020;-35
2022/10/16 00:36:17;;;;;;;9.43;3.15;;;;;;;12.06;100.00;100997.53;5116933;28;19923;-35
2022/10/16 00:38:43;;;;;;;5.90;2.50;;;;;;;12.04;100.00;100992.34;5117287;28;20367;-35
2022/10/16 00:41:13;;;;;;;3.90;2.73;;;;;;;12.05;100.00;101002.13;5116800;28;20032;-35
2022/10/16 00:43:50;;;;;;;3.92;2.65;;;;;;;12.04;100.00;100997.75;5116750;28;20258;-35
2022/10/16 00:46:16;;;;;;;4.55;2.35;;;;;;;12.03;100.00;101006.13;5116705;27;20072;-35
2022/10/16 00:48:45;;;;;;;6.13;2.47;;;;;;;12.00;100.00;101010.13;5117065;28;20031;-35
2022/10/16 00:51:11;;;;;;;6.43;2.47;;;;;;;11.95;100.00;101012.72;5116276;28;20115;-35
2022/10/16 00:53:36;;;;;;;4.00;2.60;;;;;;;11.84;100.00;100986.44;5116343;28;20043;-35
2022/10/16 00:56:03;;;;;;;3.47;2.03;;;;;;;11.91;100.00;101005.28;5116806;28;20073;-35
2022/10/16 00:58:28;;;;;;;5.88;2.72;;;;;;;11.92;100.00;101012.38;5116426;28;20026;-35
2022/10/16 01:00:53;;;;;;;5.80;2.87;;;;;;;11.89;100.00;101013.66;5116462;28;20023;-35
2022/10/16 01:03:34;;;;;;;5.40;2.40;;;;;;;11.92;100.00;101005.06;5116670;28;20035;-35
2022/10/16 01:06:14;;;;;;;3.78;2.20;;;;;;;11.88;100.00;101009.31;5116215;28;20265;-35
2022/10/16 01:08:45;;;;;;;3.03;2.10;;;;;;;11.76;100.00;101001.16;5115873;28;20551;-35
2022/10/16 01:11:25;;;;;;;3.33;2.08;;;;;;;11.82;100.00;101005.66;5116286;28;20083;-35
2022/10/16 01:13:58;;;;;;;5.63;2.13;;;;;;;11.84;100.00;101002.72;5115796;28;20463;-35
2022/10/16 01:16:47;;;;;;;6.07;2.30;;;;;;;11.83;100.00;101001.06;5116362;28;20034;-35
2022/10/16 01:19:20;;;;;;;3.45;2.08;;;;;;;11.81;100.00;101005.88;5116792;28;20084;-35
2022/10/16 01:21:48;;;;;;;3.13;2.00;;;;;;;11.83;100.00;101009.19;5116557;28;20095;-35
2022/10/16 01:24:31;;;;;;;4.07;1.90;;;;;;;11.83;100.00;101010.00;5116713;28;20032;-35
2022/10/16 01:27:05;;;;;;;3.15;1.80;;;;;;;11.80;100.00;101012.34;5115586;28;20436;-35
2022/10/16 01:29:55;;;;;;;5.57;2.20;;;;;;;11.83;100.00;101009.19;5115569;28;20023;-35
2022/10/16 01:32:32;;;;;;;3.33;1.92;;;;;;;11.83;100.00;101012.72;5115404;28;20024;-35
2022/10/16 01:35:07;;;;;;;2.80;1.98;;;;;;;11.74;100.00;100997.84;5115964;28;20028;-35
2022/10/16 01:37:35;;;;;;;3.42;1.80;;;;;;;11.75;100.00;100995.97;5116428;28;20425;-35
2022/10/16 01:40:05;;;;;;;3.33;2.00;;;;;;;11.81;100.00;101008.59;5115346;28;20104;-35
2022/10/16 01:42:42;;;;;;;4.70;1.95;;;;;;;11.70;100.00;100985.81;5116278;28;20423;-35
2022/10/16 01:45:11;;;;;;;4.45;1.83;;;;;;;11.81;100.00;101005.88;5115309;28;20085;-35
2022/10/16 01:47:37;;;;;;;3.40;1.70;;;;;;;11.69;100.00;100989.59;5115515;28;20031;-35
2022/10/16 01:50:05;;;;;;;3.13;2.15;;;;;;;11.82;100.00;101021.09;5115508;28;20148;-35
2022/10/16 01:52:33;;;;;;;3.67;1.95;;;;;;;11.76;100.00;101000.31;5115196;28;20023;-35
2022/10/16 01:55:02;;;;;;;4.53;2.15;;;;;;;11.77;100.00;100991.97;5114826;28;20079;-35
2022/10/16 01:57:29;;;;;;;3.45;1.92;;;;;;;11.83;100.00;101007.31;5115365;28;20039;-35
2022/10/16 02:00:00;;;;;;;3.53;2.00;;;;;;;11.76;100.00;100992.19;5114936;27;20074;-35
2022/10/16 02:02:28;;;;;;;4.60;1.83;;;;;;;11.84;100.00;101002.72;5114987;28;20024;-35
2022/10/16 02:05:01;;;;;;;3.10;1.80;;;;;;;11.83;100.00;101020.03;5115138;27;20088;-35
2022/10/16 02:07:27;;;;;;;4.80;2.00;;;;;;;11.86;100.00;101019.56;5115371;28;20034;-35
2022/10/16 02:09:52;;;;;;;2.78;1.80;;;;;;;11.84;100.00;101006.25;5115031;27;20024;-35
2022/10/16 02:12:27;;;;;;;3.55;1.77;;;;;;;11.81;100.00;101014.81;5115258;28;20024;-35
2022/10/16 02:14:53;;;;;;;10.00;2.47;;;;;;;11.88;100.00;101027.47;5115544;28;20039;-35
2022/10/16 02:17:19;;;;;;;4.35;1.80;;;;;;;11.85;100.00;101023.31;5114924;28;20031;-35
2022/10/16 02:19:47;;;;;;;4.65;1.60;;;;;;;11.83;100.00;101023.56;5115207;28;20039;-35
2022/10/16 02:22:21;;;;;;;2.55;1.50;;;;;;;11.79;100.00;101013.41;5114854;28;20114;-35
2022/10/16 02:24:57;;;;;;;3.70;1.52;;;;;;;11.83;100.00;101015.44;5115203;28;20023;-35
2022/10/16 02:27:44;;;;;;;4.03;1.67;;;;;;;11.78;100.00;101015.28;5115458;27;20352;-35
2022/10/16 02:30:33;;;;;;;3.17;1.77;;;;;;;11.79;100.00;101014.22;5115170;28;20050;-35
2022/10/16 02:33:02;;;;;;;3.05;1.42;;;;;;;11.76;100.00;101009.28;5114815;28;20031;-35
2022/10/16 02:35:29;;;;;;;3.33;1.35;;;;;;;11.78;100.00;101011.75;5114257;28;20028;-35
2022/10/16 02:37:56;;;;;;;4.85;1.67;;;;;;;11.76;100.00;101016.56;5113654;28;20036;-34
2022/10/16 02:40:21;;;;;;;1.85;1.40;;;;;;;11.73;100.00;101015.16;5114640;27;20027;-35
2022/10/16 02:42:53;;;;;;;4.53;1.77;;;;;;;11.68;100.00;101025.06;5114500;28;20027;-35
2022/10/16 02:45:19;;;;;;;3.83;1.48;;;;;;;11.66;100.00;101030.69;5114859;28;20027;-35
2022/10/16 02:47:45;;;;;;;4.30;1.60;;;;;;;11.59;100.00;101014.56;5114390;28;20032;-35
2022/10/16 02:50:10;;;;;;;3.58;1.77;;;;;;;11.65;100.00;101020.09;5113963;28;20095;-35
2022/10/16 02:52:35;;;;;;;2.87;1.70;;;;;;;11.64;100.00;101013.03;5114750;28;20051;-35
2022/10/16 02:55:01;;;;;;;4.53;2.00;;;;;;;11.61;100.00;101006.19;5114736;28;20126;-35
2022/10/16 02:57:26;;;;;;;2.25;1.25;;;;;;;11.49;100.00;100998.06;5114226;27;20024;-35
2022/10/16 02:59:52;;;;;;;5.95;1.40;;;;;;;11.57;100.00;101022.09;5114146;28;20024;-35
2022/10/16 03:02:17;;;;;;;3.55;1.45;;;;;;;11.58;100.00;101009.38;5114326;28;20023;-35
2022/10/16 03:04:43;;;;;;;3.55;1.50;;;;;;;11.55;100.00;101007.94;5113746;28;20111;-35
2022/10/16 03:07:08;;;;;;;4.03;1.73;;;;;;;11.56;100.00;101015.00;5113819;28;20032;-35
2022/10/16 03:09:33;;;;;;;2.97;1.30;;;;;;;11.54;100.00;101019.03;5113938;28;20460;-35
2022/10/16 03:11:59;;;;;;;2.17;1.30;;;;;;;11.52;100.00;101016.56;5113910;28;20265;-35
2022/10/16 03:14:24;;;;;;;4.50;1.40;;;;;;;11.53;100.00;101018.19;5113822;28;20285;-35
2022/10/16 03:16:50;;;;;;;3.17;1.50;;;;;;;11.49;100.00;101013.47;5113795;27;20257;-35
2022/10/16 03:19:18;;;;;;;3.00;1.73;;;;;;;11.44;100.00;101011.47;5113883;28;20357;-35
2022/10/16 03:21:44;;;;;;;4.00;1.60;;;;;;;11.36;100.00;101009.09;5113722;28;20030;-35
2022/10/16 03:24:09;;;;;;;3.35;1.60;;;;;;;11.48;100.00;101034.31;5113935;28;20028;-35
2022/10/16 03:26:35;;;;;;;4.27;1.70;;;;;;;11.45;100.00;101037.50;5114371;27;20023;-35
2022/10/16 03:29:03;;;;;;;4.25;1.65;;;;;;;11.45;100.00;101048.31;5113752;28;20375;-35
2022/10/16 03:31:29;;;;;;;2.72;1.30;;;;;;;11.43;100.00;101050.44;5113512;28;20101;-35
2022/10/16 03:33:54;;;;;;;3.17;1.45;;;;;;;11.46;100.00;101057.25;5113996;28;20225;-35
2022/10/16 03:36:20;;;;;;;3.65;1.58;;;;;;;11.42;100.00;101056.94;5113275;28;20196;-35
2022/10/16 03:38:45;;;;;;;4.87;1.40;;;;;;;11.43;100.00;101052.34;5113843;28;20046;-35
2022/10/16 03:41:10;;;;;;;7.23;1.67;;;;;;;11.44;100.00;101057.50;5113807;28;20062;-35
2022/10/16 03:43:36;;;;;;;3.17;1.50;;;;;;;11.44;100.00;101035.03;5113814;28;20059;-35
2022/10/16 03:46:01;;;;;;;2.60;1.40;;;;;;;11.43;100.00;101042.31;5113533;28;20416;-35
2022/10/16 03:48:26;;;;;;;2.53;1.13;;;;;;;11.39;100.00;101041.13;5113265;28;20035;-35
2022/10/16 03:50:52;;;;;;;2.30;1.40;;;;;;;11.44;100.00;101046.69;5113412;28;20032;-35
2022/10/16 03:53:17;;;;;;;3.43;1.43;;;;;;;11.46;100.00;101051.84;5113402;28;20324;-35
2022/10/16 03:55:43;;;;;;;2.50;1.30;;;;;;;11.45;100.00;101056.44;5113850;28;20459;-35
2022/10/16 03:58:08;;;;;;;4.95;1.55;;;;;;;11.46;100.00;101059.97;5113466;28;20276;-35
2022/10/16 04:00:34;;;;;;;2.90;1.43;;;;;;;11.46;100.00;101062.69;5113328;28;20065;-35
2022/10/16 04:03:00;;;;;;;4.30;1.48;;;;;;;11.47;100.00;101061.66;5113532;28;20313;-35
2022/10/16 04:05:25;;;;;;;2.95;1.38;;;;;;;11.35;100.00;101045.34;5113599;28;20061;-35
2022/10/16 04:07:50;;;;;;;3.13;1.40;;;;;;;11.41;100.00;101052.53;5113307;28;20035;-35
2022/10/16 04:10:16;;;;;;;5.63;1.43;;;;;;;11.47;100.00;101061.66;5113255;28;20265;-35
2022/10/16 04:12:41;;;;;;;1.77;1.20;;;;;;;11.47;100.00;101064.34;5113186;28;20027;-35
2022/10/16 04:15:07;;;;;;;2.10;1.10;;;;;;;11.48;100.00;101069.53;5113243;28;20035;-35
2022/10/16 04:17:32;;;;;;;1.83;1.25;;;;;;;11.42;100.00;101065.03;5112871;28;20031;-35
2022/10/16 04:19:57;;;;;;;2.50;1.27;;;;;;;11.49;100.00;101076.59;5113148;28;20102;-35
2022/10/16 04:22:23;;;;;;;2.80;1.30;;;;;;;11.50;100.00;101074.72;5113717;28;20111;-35
2022/10/16 04:24:48;;;;;;;2.10;1.23;;;;;;;11.51;100.00;101077.16;5113308;28;20383;-35
2022/10/16 04:27:13;;;;;;;3.53;1.20;;;;;;;11.53;100.00;101076.97;5113673;28;20086;-35
2022/10/16 04:29:39;;;;;;;3.03;1.23;;;;;;;11.55;100.00;101081.06;5112813;28;20427;-35
2022/10/16 04:32:04;;;;;;;2.97;1.27;;;;;;;11.53;100.00;101074.25;5113303;28;20254;-35
2022/10/16 04:34:29;;;;;;;2.67;1.33;;;;;;;11.51;100.00;101066.34;5113504;28;20028;-35
2022/10/16 04:36:55;;;;;;;1.60;1.00;;;;;;;11.51;100.00;101073.63;5113182;28;20508;-35
2022/10/16 04:39:20;;;;;;;3.20;1.07;;;;;;;11.54;100.00;101084.03;5113158;28;20111;-35
2022/10/16 04:41:45;;;;;;;3.47;1.35;;;;;;;11.42;100.00;101056.94;5112876;28;20023;-35
2022/10/16 04:44:11;;;;;;;2.20;1.20;;;;;;;11.53;100.00;101083.19;5112522;28;20040;-35
2022/10/16 04:46:36;;;;;;;1.50;1.00;;;;;;;11.52;100.00;101080.75;5113098;28;20051;-35
2022/10/16 04:49:01;;;;;;;3.13;1.20;;;;;;;11.44;100.00;101076.47;5112562;28;20028;-35
2022/10/16 04:51:27;;;;;;;4.90;1.60;;;;;;;11.51;100.00;101090.72;5112814;28;20115;-34
2022/10/16 04:53:54;;;;;;;3.05;1.20;;;;;;;11.49;100.00;101105.56;5112885;28;20055;-35
2022/10/16 04:56:20;;;;;;;2.58;1.20;;;;;;;11.48;100.00;101099.31;5112980;28;20038;-34
2022/10/16 04:58:45;;;;;;;5.05;1.17;;;;;;;11.47;100.00;101105.81;5112949;28;20080;-35
2022/10/16 05:01:11;;;;;;;3.30;1.30;;;;;;;11.47;100.00;101104.97;5114562;28;20027;-34
2022/10/16 05:03:36;;;;;;;3.23;1.13;;;;;;;11.42;100.00;101102.09;5116989;28;20035;-35
2022/10/16 05:06:03;;;;;;;2.83;1.70;;;;;;;11.50;100.00;101115.31;5116460;28;20268;-35
2022/10/16 05:08:29;;;;;;;2.70;1.40;;;;;;;11.50;100.00;101124.28;5116790;28;20027;-35
2022/10/16 05:10:54;;;;;;;2.97;1.13;;;;;;;11.50;100.00;101132.41;5116666;28;20455;-35
2022/10/16 05:13:20;;;;;;;2.70;1.47;;;;;;;11.50;100.00;101121.56;5116202;28;20030;-35
2022/10/16 05:15:48;;;;;;;2.53;1.50;;;;;;;11.45;100.00;101118.72;5116159;28;20023;-35
2022/10/16 05:18:14;;;;;;;3.55;1.05;;;;;;;11.46;100.00;101117.66;5116432;28;20031;-34
2022/10/16 05:20:39;;;;;;;2.63;1.33;;;;;;;11.48;100.00;101114.75;5115491;28;20112;-35
2022/10/16 05:23:04;;;;;;;1.60;1.20;;;;;;;11.45;100.00;101118.72;5116115;28;20032;-35
2022/10/16 05:25:30;;;;;;;3.33;1.83;;;;;;;11.43;100.00;101122.72;5115998;28;20023;-35
2022/10/16 05:27:55;;;;;;;3.50;1.60;;;;;;;11.42;100.00;101127.31;5116671;28;20268;-35
2022/10/16 05:30:21;;;;;;;4.70;1.90;;;;;;;11.38;100.00;101136.97;5115924;27;20084;-35
2022/10/16 05:32:50;;;;;;;3.47;1.45;;;;;;;11.37;100.00;101143.44;5114500;28;20051;-35
2022/10/16 05:35:17;;;;;;;4.20;1.10;;;;;;;11.41;100.00;101155.44;5116016;28;20105;-35
2022/10/16 05:37:43;;;;;;;3.28;1.33;;;;;;;11.41;100.00;101157.31;5115551;28;20028;-35
2022/10/16 05:40:09;;;;;;;3.10;1.38;;;;;;;11.35;100.00;101167.19;5115698;28;20024;-35
2022/10/16 05:42:34;;;;;;;4.15;1.40;;;;;;;11.37;100.00;101166.94;5115805;28;20034;-35
2022/10/16 05:45:00;;;;;;;2.10;1.60;;;;;;;11.38;100.00;101176.75;5115836;28;20019;-35
2022/10/16 05:47:25;;;;;;;3.65;1.35;;;;;;;11.38;100.00;101180.28;5115735;28;20456;-34
2022/10/16 05:49:51;;;;;;;3.33;1.40;;;;;;;11.38;100.00;101180.28;5115211;28;20102;-35
2022/10/16 05:52:16;;;;;;;2.50;1.27;;;;;;;11.28;100.00;101172.69;5115542;28;20396;-34
2022/10/16 05:54:41;;;;;;;2.70;1.20;;;;;;;11.34;100.00;101200.75;5116011;28;20150;-34
2022/10/16 05:57:07;;;;;;;2.90;1.50;;;;;;;11.21;100.00;101181.94;5115489;28;20435;-35
2022/10/16 05:59:32;;;;;;;3.67;1.73;;;;;;;11.21;100.00;101190.06;5115809;28;20115;-35
2022/10/16 06:01:57;;;;;;;2.47;1.30;;;;;;;11.24;100.00;101205.88;5115590;28;20016;-35
2022/10/16 06:04:23;;;;;;;1.95;1.25;;;;;;;11.13;100.00;101207.44;5115628;28;20073;-35
2022/10/16 06:06:48;;;;;;;3.33;1.57;;;;;;;11.18;100.00;101212.19;5115928;28;20091;-35
2022/10/16 06:09:14;;;;;;;2.83;1.30;;;;;;;11.18;100.00;101212.19;5115085;28;20277;-35
2022/10/16 06:11:39;;;;;;;3.00;1.33;;;;;;;11.17;100.00;101215.94;5115092;28;20099;-35
2022/10/16 06:14:06;;;;;;;3.50;1.20;;;;;;;11.12;100.00;101219.31;5114853;28;20483;-35
2022/10/16 06:16:33;;;;;;;3.05;1.75;;;;;;;11.09;100.00;101222.47;5114660;28;20062;-35
2022/10/16 06:19:01;;;;;;;4.65;1.77;;;;;;;11.12;100.00;101224.72;5114875;28;20129;-35
2022/10/16 06:21:28;;;;;;;3.40;1.52;;;;;;;11.08;100.00;101224.38;5114750;28;20020;-35
2022/10/16 06:23:57;;;;;;;2.35;1.50;;;;;;;11.07;100.00;101232.69;5115516;28;20031;-35
2022/10/16 06:26:26;;;;;;;5.82;1.50;;;;;;;11.04;100.00;101233.16;5114957;28;20030;-35
2022/10/16 06:28:51;;;;;;;5.63;2.08;;;;;;;11.11;100.00;101233.06;5115452;28;20051;-35
2022/10/16 06:31:17;;;;;;;2.63;1.35;;;;;;;11.12;100.00;101245.56;5114670;27;20467;-35
2022/10/16 06:33:43;;;;;;;3.90;1.90;;;;;;;11.13;100.00;101247.22;5115048;28;20024;-35
2022/10/16 06:36:08;;;;;;;;;;;;;;;11.17;100.00;101251.13;5114594;28;20027;-35
2022/10/16 06:38:34;;;;;;;5.13;1.52;;;;;;;11.13;100.00;101247.22;5115227;28;19911;-34
2022/10/16 06:41:00;;;;;;;4.15;1.40;;;;;;;11.16;100.00;101263.81;5114489;27;20024;-35
2022/10/16 06:43:26;;;;;;;3.58;1.75;;;;;;;11.19;100.00;101257.97;5114455;28;20055;-35
2022/10/16 06:45:56;;;;;;;3.35;1.92;;;;;;;11.23;100.00;101258.34;5114425;28;20039;-35
2022/10/16 06:48:22;;;;;;;3.90;1.75;;;;;;;11.26;100.00;101263.31;5114522;28;20417;-35
2022/10/16 06:51:04;;;;;;;4.28;2.00;;;;;;;11.18;100.00;101247.38;5114348;27;20106;-35
2022/10/16 06:53:35;;;;;;;4.65;1.85;;;;;;;11.28;100.00;101256.63;5114608;28;20372;-35
2022/10/16 06:56:15;;;;;;;2.85;1.63;;;;;;;11.48;100.00;101278.06;5114757;28;20445;-35
2022/10/16 06:58:42;;;;;;;7.10;1.85;;;;;;;11.54;100.00;101270.91;5113927;28;20102;-35
2022/10/16 07:01:09;;;;;;;5.00;2.20;;;;;;;11.63;100.00;101274.97;5113860;28;20435;-35
2022/10/16 07:03:42;;;;;;;3.45;1.45;;;;;;;11.71;100.00;101288.22;5114115;28;20054;-35
2022/10/16 07:06:09;;;;;;;2.72;1.50;;;;;;;11.84;100.00;101287.22;5114263;28;20028;-35
2022/10/16 07:08:37;;;;;;;4.35;1.50;;;;;;;11.90;100.00;101291.72;5114424;28;20456;-35
2022/10/16 07:11:05;;;;;;;4.93;1.75;;;;;;;12.02;100.00;101306.16;5113897;28;20114;-35
2022/10/16 07:13:33;;;;;;;3.03;1.80;;;;;;;12.11;100.00;101312.94;5113830;28;20365;-36
2022/10/16 07:16:13;;;;;;;4.90;1.60;;;;;;;12.22;100.00;101305.06;5113484;28;20034;-35
2022/10/16 07:18:40;;;;;;;6.50;1.60;;;;;;;12.31;100.00;101309.94;5113809;28;20468;-35
2022/10/16 07:21:05;;;;;;;3.22;1.40;;;;;;;12.39;100.00;101314.19;5114280;28;20035;-35
2022/10/16 07:23:31;;;;;;;3.83;1.50;;;;;;;12.42;100.00;101305.59;5113374;28;20027;-35
2022/10/16 07:25:56;;;;;;;5.60;2.27;;;;;;;12.54;100.00;101324.59;5113901;28;20028;-35
2022/10/16 07:28:21;;;;;;;3.67;1.40;;;;;;;12.55;100.00;101335.22;5114016;28;20055;-35
2022/10/16 07:30:47;;;;;;;2.78;1.50;;;;;;;12.60;100.00;101345.41;5113417;28;20518;-35
2022/10/16 07:33:12;;;;;;;3.75;1.38;;;;;;;12.65;100.00;101350.13;5113846;28;20107;-35
2022/10/16 07:35:37;;;;;;;5.73;1.90;;;;;;;12.63;100.00;101340.31;5113233;28;20133;-34
2022/10/16 07:38:03;;;;;;;2.87;1.50;;;;;;;12.67;100.00;101337.97;5114054;28;20296;-35
2022/10/16 07:40:28;;;;;;;3.13;1.40;;;;;;;12.73;100.00;101342.44;5113790;28;20106;-35
2022/10/16 07:42:53;;;;;;;4.60;1.43;;;;;;;12.84;100.00;101343.56;5113846;28;20070;-35
2022/10/16 07:45:19;;;;;;;2.13;1.30;;;;;;;12.87;100.00;101346.59;5113558;28;20419;-35
2022/10/16 07:47:44;;;;;;;8.30;1.93;;;;;;;12.95;100.00;101350.06;5113341;28;20020;-35
2022/10/16 07:50:09;;;;;;;2.58;1.25;;;;;;;12.99;100.00;101362.09;5113453;28;20653;-35
2022/10/16 07:52:35;;;;;;;3.80;1.60;;;;;;;13.04;100.00;101373.09;5113564;28;20371;-35
2022/10/16 07:55:00;;;;;;;5.40;1.63;;;;;;;13.08;100.00;101375.09;5113794;28;20044;-35
2022/10/16 07:57:25;;;;;;;4.15;1.50;;;;;;;13.09;100.00;101371.31;5113730;28;20059;-35
2022/10/16 07:59:51;;;;;;;2.67;1.40;;;;;;;13.22;100.00;101375.72;5113400;28;20028;-35
2022/10/16 08:02:16;;;;;;;3.70;1.50;;;;;;;13.23;100.00;101376.56;5113661;28;20063;-35
2022/10/16 08:04:41;;;;;;;7.20;1.53;;;;;;;13.25;100.00;101372.53;5113548;28;20023;-35
2022/10/16 08:07:08;;;;;;;4.22;1.50;;;;;;;13.22;100.00;101367.56;5113695;28;20422;-35
2022/10/16 08:09:33;;;;;;;5.03;1.63;;;;;;;13.32;100.00;101383.25;5113346;28;20031;-35
2022/10/16 08:11:58;;;;;;;3.03;1.40;;;;;;;13.36;100.00;101389.88;5113086;28;20153;-35
2022/10/16 08:14:24;;;;;;;6.27;1.60;;;;;;;13.43;100.00;101412.34;5113349;28;20039;-36
2022/10/16 08:16:49;;;;;;;3.90;1.63;;;;;;;13.47;100.00;101416.25;5113620;28;20031;-35
2022/10/16 08:19:15;;;;;;;5.73;1.97;;;;;;;13.53;100.00;101415.28;5113862;28;20715;-35
2022/10/16 08:21:40;;;;;;;;;;;;;;;13.60;100.00;101418.69;5113741;28;20068;-35
2022/10/16 08:24:06;;;;;;;4.35;1.50;;;;;;;13.67;100.00;101420.50;5113038;28;19943;-37
2022/10/16 08:26:31;;;;;;;2.63;1.40;;;;;;;13.73;100.00;101416.81;5113858;28;20031;-35
2022/10/16 08:28:56;;;;;;;4.72;1.33;;;;;;;13.79;100.00;101429.44;5113525;28;20027;-35
2022/10/16 08:31:22;;;;;;;3.73;1.73;;;;;;;13.73;100.00;101404.06;5113008;28;20435;-35
2022/10/16 08:33:48;;;;;;;3.00;1.58;;;;;;;13.84;100.00;101421.41;5113967;28;20664;-35
2022/10/16 08:36:15;;;;;;;3.42;1.35;;;;;;;13.93;100.00;101432.75;5115493;28;20024;-35
2022/10/16 08:38:41;;;;;;;5.22;1.50;;;;;;;13.97;100.00;101432.03;5117407;28;20077;-35
2022/10/16 08:41:17;;;;;;;4.10;1.35;;;;;;;14.03;100.00;101419.38;5117381;28;20421;-35
2022/10/16 08:44:10;;;;;;;3.60;1.10;;;;;;;14.13;100.00;101425.84;5117734;28;20507;-35
2022/10/16 08:47:00;;;;;;;4.43;1.25;;;;;;;14.20;100.00;101444.75;5117519;28;20020;-35
2022/10/16 08:49:26;;;;;;;3.50;1.35;;;;;;;14.26;100.00;101445.69;5117501;28;20028;-35
2022/10/16 08:51:51;;;;;;;;;;;;;;;14.35;100.00;101450.50;5117307;28;20375;-35
2022/10/16 08:54:30;;;;;;;6.10;1.40;;;;;;;14.39;100.00;101440.78;5116682;28;19923;-35
2022/10/16 08:57:06;;;;;;;3.92;1.10;;;;;;;14.50;100.00;101452.75;5116704;28;20399;-35
2022/10/16 08:59:32;;;;;;;5.95;1.30;;;;;;;14.49;100.00;101456.50;5117492;28;20132;-35
2022/10/16 09:01:57;;;;;;;;;;;;;;;14.57;100.00;101455.31;5116812;28;20037;-35
2022/10/16 09:04:28;;;;;;;5.20;1.00;;;;;;;14.57;100.00;101467.03;5116613;28;20331;-35
2022/10/16 09:06:56;;;;;;;2.75;1.02;;;;;;;14.64;100.00;101461.41;5116491;28;20050;-35
2022/10/16 09:09:27;;;;;;;4.28;1.35;;;;;;;14.70;100.00;101467.81;5117111;28;20077;-35
2022/10/16 09:12:13;;;;;;;7.93;1.42;;;;;;;14.74;100.00;101466.22;5117036;28;20031;-35
2022/10/16 09:15:06;;;;;;;4.78;1.15;;;;;;;14.82;100.00;101466.69;5116481;28;20029;-35
2022/10/16 09:18:05;;;;;;;5.72;1.35;;;;;;;14.92;100.00;101480.47;5116700;28;20050;-35
2022/10/16 09:21:10;;;;;;;4.13;1.30;;;;;;;15.02;100.00;101466.22;5116361;28;20036;-35
2022/10/16 09:23:37;;;;;;;6.88;1.73;;;;;;;15.11;98.89;101478.38;5112675;28;20433;-35
2022/10/16 09:26:05;;;;;;;6.93;1.50;;;;;;;15.17;96.49;101479.28;5116472;28;20465;-35
2022/10/16 09:28:30;;;;;;;5.63;1.30;;;;;;;15.26;97.61;101485.16;5116453;28;20114;-35
2022/10/16 09:30:55;;;;;;;;;;;;;;;15.36;100.00;101488.03;5116216;28;20391;-35
2022/10/16 09:33:27;;;;;;;5.35;1.55;;;;;;;15.34;95.67;101473.84;5116304;28;19998;-35
2022/10/16 09:35:55;;;;;;;3.42;1.30;;;;;;;15.44;95.17;101493.09;5115976;28;20516;-35
2022/10/16 09:38:28;;;;;;;6.07;1.90;;;;;;;15.47;93.50;101489.88;5115989;27;20027;-35
2022/10/16 09:40:54;;;;;;;6.50;1.75;;;;;;;15.54;93.86;101486.97;5116180;28;20035;-35
2022/10/16 09:43:24;;;;;;;8.48;1.60;;;;;;;15.55;93.13;101486.72;5116487;28;20032;-35
2022/10/16 09:46:01;;;;;;;3.83;1.20;;;;;;;15.59;93.78;101481.59;5115791;28;20450;-35
2022/10/16 09:48:35;;;;;;;7.38;1.90;;;;;;;15.61;92.92;101474.81;5116018;28;20487;-35
2022/10/16 09:51:04;;;;;;;4.88;1.48;;;;;;;15.62;92.93;101473.75;5115531;28;20023;-35
2022/10/16 09:53:43;;;;;;;8.85;1.80;;;;;;;15.79;92.35;101495.56;5115793;28;20020;-35
2022/10/16 09:56:13;;;;;;;6.63;2.00;;;;;;;15.77;91.40;101477.84;5115497;28;20028;-35
2022/10/16 09:58:42;;;;;;;6.53;1.80;;;;;;;15.95;92.60;101491.16;5116044;28;20080;-35
2022/10/16 10:01:14;;;;;;;6.32;1.63;;;;;;;16.08;91.92;101493.53;5115651;28;20452;-35
2022/10/16 10:03:42;;;;;;;6.25;1.63;;;;;;;16.16;90.45;101486.84;5115358;28;20068;-35
2022/10/16 10:06:28;;;;;;;10.00;2.00;;;;;;;16.20;90.73;101494.28;5115565;28;20106;-35
2022/10/16 10:09:03;;;;;;;8.48;2.33;;;;;;;16.32;89.24;101501.50;5115504;28;20034;-36
2022/10/16 10:11:48;;;;;;;9.93;1.83;;;;;;;16.44;91.32;101491.25;5115259;28;20444;-35
2022/10/16 10:14:20;;;;;;;8.95;1.55;;;;;;;16.49;89.32;101496.78;5115058;28;20034;-36
2022/10/16 10:16:46;;;;;;;10.75;1.95;;;;;;;16.47;87.86;101488.88;5115468;28;20095;-35
2022/10/16 10:19:20;;;;;;;9.02;2.40;;;;;;;16.49;87.57;101502.25;5115030;28;20051;-35
2022/10/16 10:21:46;;;;;;;8.95;1.70;;;;;;;16.51;86.16;101500.09;5115339;28;20034;-35
2022/10/16 10:24:13;;;;;;;;;;;;;;;16.63;90.08;101506.25;5115804;28;20031;-35
2022/10/16 10:26:43;;;;;;;10.32;2.13;;;;;;;16.69;86.87;101510.72;5114556;28;19911;-36
2022/10/16 10:29:11;;;;;;;9.23;2.00;;;;;;;16.78;85.45;101521.19;5114976;28;20031;-36
2022/10/16 10:31:48;;;;;;;7.32;1.90;;;;;;;16.80;84.02;101527.22;5114684;28;20529;-35
2022/10/16 10:34:50;;;;;;;6.57;2.03;;;;;;;16.91;86.66;101523.53;5114647;28;20064;-35
2022/10/16 10:37:42;;;;;;;7.38;2.03;;;;;;;17.01;86.41;101520.91;5114644;28;20043;-35
2022/10/16 10:40:22;;;;;;;9.02;2.40;;;;;;;17.08;83.10;101521.53;5115030;28;20032;-35
2022/10/16 10:42:57;;;;;;;9.90;2.13;;;;;;;17.04;82.08;101517.66;5114858;28;20023;-35
2022/10/16 10:45:46;;;;;;;7.28;1.75;;;;;;;17.20;84.28;101524.09;5114979;28;20023;-36
2022/10/16 10:48:59;;;;;;;10.60;2.47;;;;;;;17.16;83.71;101533.88;5114953;28;20024;-36
2022/10/16 10:51:49;;;;;;;8.90;1.90;;;;;;;17.02;81.22;101525.28;5112224;28;20035;-36
2022/10/16 10:54:25;;;;;;;8.10;2.20;;;;;;;17.08;78.52;101526.16;5114577;28;20407;-35
2022/10/16 10:57:10;;;;;;;10.85;2.38;;;;;;;17.18;77.72;101532.56;5114141;28;20032;-35
2022/10/16 11:00:15;;;;;;;8.05;1.90;;;;;;;17.25;79.57;101530.44;5112976;28;20020;-35
2022/10/16 11:02:47;;;;;;;10.43;1.90;;;;;;;17.19;76.37;101522.47;5114181;28;20032;-35
2022/10/16 11:05:24;;;;;;;8.95;2.05;;;;;;;17.36;76.70;101536.00;5114119;28;20027;-36
2022/10/16 11:07:59;;;;;;;9.15;1.83;;;;;;;17.23;78.87;101532.63;5114710;28;20430;-35
2022/10/16 11:10:30;;;;;;;9.65;2.10;;;;;;;17.09;77.06;101546.94;5114171;28;20038;-35
2022/10/16 11:13:10;;;;;;;5.47;1.55;;;;;;;16.88;78.83;101541.25;5114541;28;20035;-36
2022/10/16 11:15:40;;;;;;;9.40;1.95;;;;;;;17.01;78.87;101544.66;5113959;28;20499;-35
2022/10/16 11:18:21;;;;;;;5.50;1.52;;;;;;;16.93;77.98;101535.88;5114056;28;20103;-35
2022/10/16 11:20:55;;;;;;;10.02;1.90;;;;;;;17.12;77.99;101547.25;5114152;28;20024;-36
2022/10/16 11:23:29;;;;;;;6.65;1.80;;;;;;;17.33;77.43;101544.72;5114598;28;20027;-35
2022/10/16 11:26:00;;;;;;;6.80;1.88;;;;;;;17.50;76.00;101540.78;5113143;28;20047;-35
2022/10/16 11:28:41;;;;;;;8.70;2.05;;;;;;;17.59;76.30;101532.09;5114458;28;20028;-36
2022/10/16 11:31:19;;;;;;;7.80;1.92;;;;;;;17.81;76.79;101534.75;5113515;28;20034;-36